Krusevac, Serbia
Current Conditions -  °F | °C
As of 8:00 PM on Wednesday 28 Jan 2015 (Local Time) from LYNI Reporting Station
Broken Clouds Broken Clouds  
Wind Chill: 26°   Ceiling: 2300
Heat Index: 34°   Visibility: 6mi
Dew Point: 30°   Wind: 10mph
Humidity: 87%   Direction: 320°NW
Pressure: 29.97"   Gusts: NA
Location:  43.58°N, 21.32°E
Report Text: LYNI 281800Z 32009KT 9999 SCT008 BKN023 01/M01 Q1015 R11/2///95NOSIG
Loading
Personal Weather Stations






























Interactive Weather Map New forecast layout! Learn more

10-Day Weather Forecast

Advertisements
Track Severe Weather on mobile